Time;durP1;ratioP1;P1;durP2;ratioP2;P2;SDS_P1;SDS_P2;PMS_P1;PMS_P2;Temp;Humidity;BMP_temperature;BMP_pressure;BME280_temperature;BME280_humidity;BME280_pressure;Samples;Min_cycle;Max_cycle;Signal;HPM_P1;HPM_P2
2022/05/21 04:58:23;;;;;;;4.90;4.40;;;;;;;;;;5687589;22;20249;-75
2022/05/21 05:00:49;;;;;;;5.70;4.50;;;;;;;;;;4994944;28;20211;-74
2022/05/21 05:03:16;;;;;;;5.07;4.27;;;;;;;;;;4978044;28;20215;-74
2022/05/21 05:05:43;;;;;;;4.33;3.93;;;;;;;;;;4994302;28;20246;-73
2022/05/21 05:08:09;;;;;;;6.47;4.47;;;;;;;;;;4994183;28;20286;-74
2022/05/21 05:10:38;;;;;;;5.40;4.33;;;;;;;;;;4978410;28;20722;-75
2022/05/21 05:13:04;;;;;;;4.60;4.20;;;;;;;;;;4994300;28;20254;-76
2022/05/21 05:15:31;;;;;;;5.67;4.47;;;;;;;;;;4977823;28;20195;-76
2022/05/21 05:18:01;;;;;;;5.10;4.60;;;;;;;;;;4993865;28;20219;-76
2022/05/21 05:20:27;;;;;;;4.93;4.43;;;;;;;;;;4994010;28;20179;-76
2022/05/21 05:22:53;;;;;;;5.03;4.40;;;;;;;;;;4993784;28;20275;-76
2022/05/21 05:25:19;;;;;;;8.13;5.43;;;;;;;;;;4993881;28;20184;-76
2022/05/21 05:27:46;;;;;;;6.13;5.27;;;;;;;;;;4995408;28;20205;-76
2022/05/21 05:30:13;;;;;;;5.93;5.17;;;;;;;;;;4993662;28;20180;-75
2022/05/21 05:32:39;;;;;;;6.80;5.33;;;;;;;;;;4993663;28;20568;-75
2022/05/21 05:35:05;;;;;;;5.50;5.00;;;;;;;;;;4993765;28;20649;-74
2022/05/21 05:37:31;;;;;;;5.80;5.20;;;;;;;;;;4977614;28;20190;-74
2022/05/21 05:39:57;;;;;;;5.20;4.70;;;;;;;;;;4993650;28;20180;-74
2022/05/21 05:42:24;;;;;;;7.17;6.20;;;;;;;;;;4993258;28;20302;-74
2022/05/21 05:44:50;;;;;;;6.60;6.00;;;;;;;;;;4977226;28;20258;-74
2022/05/21 05:47:16;;;;;;;7.27;5.13;;;;;;;;;;4977336;28;20252;-74
2022/05/21 05:49:42;;;;;;;5.73;4.63;;;;;;;;;;4977091;28;20257;-74
2022/05/21 05:52:11;;;;;;;7.47;5.43;;;;;;;;;;4977094;28;20569;-74
2022/05/21 05:54:37;;;;;;;5.83;4.90;;;;;;;;;;4993518;28;20175;-74
2022/05/21 05:57:04;;;;;;;6.93;4.63;;;;;;;;;;4993240;28;20553;-74
2022/05/21 06:05:00;;;;;;;5.07;4.03;;;;;;;;;;4993349;28;20218;-75
2022/05/21 06:07:26;;;;;;;7.07;4.20;;;;;;;;;;4992981;28;20182;-76
2022/05/21 06:09:52;;;;;;;5.47;3.93;;;;;;;;;;4992827;28;20285;-76
2022/05/21 06:12:18;;;;;;;6.33;3.90;;;;;;;;;;4991924;28;20257;-76
2022/05/21 06:14:45;;;;;;;4.43;3.90;;;;;;;;;;4992854;28;20623;-76
2022/05/21 06:17:12;;;;;;;6.03;4.13;;;;;;;;;;4976681;28;20186;-76
2022/05/21 06:19:38;;;;;;;4.37;3.90;;;;;;;;;;4976730;28;20226;-76
2022/05/21 06:22:04;;;;;;;5.60;3.70;;;;;;;;;;4992585;28;20180;-76
2022/05/21 06:24:35;;;;;;;6.13;4.00;;;;;;;;;;4992590;28;20238;-76
2022/05/21 06:27:01;;;;;;;4.93;3.60;;;;;;;;;;4992914;28;20262;-76
2022/05/21 06:29:27;;;;;;;6.93;3.73;;;;;;;;;;4976449;28;20238;-76
2022/05/21 06:31:52;;;;;;;4.40;3.47;;;;;;;;;;4976254;28;20368;-76
2022/05/21 06:34:18;;;;;;;5.97;3.47;;;;;;;;;;4976253;28;20311;-76
2022/05/21 06:36:44;;;;;;;3.77;3.33;;;;;;;;;;4976282;28;20178;-76
2022/05/21 06:39:10;;;;;;;5.63;3.47;;;;;;;;;;4976164;28;20705;-76
2022/05/21 06:41:37;;;;;;;5.00;3.50;;;;;;;;;;4992242;28;20226;-77
2022/05/21 06:44:03;;;;;;;4.20;3.20;;;;;;;;;;4992292;28;20234;-76
2022/05/21 06:46:29;;;;;;;3.97;3.23;;;;;;;;;;4976262;28;20183;-76
2022/05/21 06:48:55;;;;;;;5.50;3.00;;;;;;;;;;4976084;28;20250;-76
2022/05/21 06:51:21;;;;;;;3.47;2.80;;;;;;;;;;4975933;28;20183;-76
2022/05/21 06:53:47;;;;;;;3.73;2.57;;;;;;;;;;4993209;28;20690;-76
2022/05/21 06:56:18;;;;;;;3.60;2.43;;;;;;;;;;4992324;28;20207;-76
2022/05/21 06:58:44;;;;;;;4.07;2.57;;;;;;;;;;4993207;28;20319;-76
2022/05/21 07:01:10;;;;;;;2.83;2.40;;;;;;;;;;4975852;28;20233;-76
2022/05/21 07:03:36;;;;;;;3.30;2.30;;;;;;;;;;4975419;28;20180;-76
2022/05/21 07:08:48;;;;;;;3.60;2.43;;;;;;;;;;4993461;28;20218;-76
2022/05/21 07:11:14;;;;;;;5.20;2.30;;;;;;;;;;4993082;28;20177;-76
2022/05/21 07:13:40;;;;;;;3.57;2.10;;;;;;;;;;4975407;28;20215;-76
2022/05/21 07:16:07;;;;;;;2.63;2.10;;;;;;;;;;4991770;28;20186;-76
2022/05/21 07:18:33;;;;;;;3.00;1.70;;;;;;;;;;4992858;28;20188;-76
2022/05/21 07:20:59;;;;;;;3.03;1.80;;;;;;;;;;4992064;28;20180;-76
2022/05/21 07:23:26;;;;;;;2.17;1.77;;;;;;;;;;4975276;28;20242;-76
2022/05/21 07:25:52;;;;;;;2.27;1.90;;;;;;;;;;4991872;28;20189;-76
2022/05/21 07:28:18;;;;;;;2.67;1.40;;;;;;;;;;4991476;28;20200;-76
2022/05/21 07:30:45;;;;;;;2.37;1.40;;;;;;;;;;4991669;28;20556;-76
2022/05/21 07:33:16;;;;;;;4.43;1.80;;;;;;;;;;4992593;28;20199;-76
2022/05/21 07:35:42;;;;;;;3.37;1.60;;;;;;;;;;4992853;28;20733;-76
2022/05/21 07:38:09;;;;;;;2.37;1.70;;;;;;;;;;4992727;28;20274;-76
2022/05/21 07:40:36;;;;;;;3.93;1.93;;;;;;;;;;4992757;28;20226;-76
2022/05/21 07:43:16;;;;;;;2.30;1.70;;;;;;;;;;4991139;28;20187;-76
2022/05/21 07:45:42;;;;;;;2.40;1.60;;;;;;;;;;4991746;28;20211;-76
2022/05/21 07:48:10;;;;;;;2.43;1.50;;;;;;;;;;4991398;28;20207;-76
2022/05/21 07:50:40;;;;;;;4.83;1.70;;;;;;;;;;4992638;28;20167;-76
2022/05/21 07:53:09;;;;;;;2.57;1.70;;;;;;;;;;4975376;28;20310;-76
2022/05/21 07:55:35;;;;;;;2.30;1.60;;;;;;;;;;4991177;28;20223;-76
2022/05/21 07:58:01;;;;;;;3.43;1.50;;;;;;;;;;4975175;28;20572;-76
2022/05/21 08:00:27;;;;;;;4.33;1.60;;;;;;;;;;4991476;28;20172;-76
2022/05/21 08:02:53;;;;;;;2.50;1.60;;;;;;;;;;4974997;28;20183;-76
2022/05/21 08:05:19;;;;;;;2.90;1.50;;;;;;;;;;4975035;28;20188;-76
2022/05/21 08:07:49;;;;;;;3.27;1.50;;;;;;;;;;4975259;28;20262;-76
2022/05/21 08:10:15;;;;;;;2.37;1.40;;;;;;;;;;4991486;28;20179;-76
2022/05/21 08:12:41;;;;;;;2.67;1.47;;;;;;;;;;4992133;28;20203;-76
2022/05/21 08:15:07;;;;;;;2.70;1.50;;;;;;;;;;4975251;28;20183;-76
2022/05/21 08:17:33;;;;;;;3.90;1.30;;;;;;;;;;4991289;28;20202;-76
2022/05/21 08:19:59;;;;;;;4.07;1.73;;;;;;;;;;4975139;28;20215;-76
2022/05/21 08:27:56;;;;;;;1.90;1.30;;;;;;;;;;4991678;28;20227;-76
2022/05/21 08:30:22;;;;;;;3.10;1.30;;;;;;;;;;4991166;28;20179;-76
2022/05/21 08:32:48;;;;;;;2.93;1.10;;;;;;;;;;4974759;28;20207;-76
2022/05/21 08:35:14;;;;;;;2.03;1.30;;;;;;;;;;4991895;28;20168;-76
2022/05/21 08:37:40;;;;;;;1.90;1.23;;;;;;;;;;4994605;28;20167;-76
2022/05/21 08:40:07;;;;;;;2.77;1.30;;;;;;;;;;4994673;28;20190;-76
2022/05/21 08:42:34;;;;;;;3.00;1.10;;;;;;;;;;4994618;28;20182;-76
2022/05/21 08:45:26;;;;;;;2.10;0.90;;;;;;;;;;4994739;28;20179;-76
2022/05/21 08:48:11;;;;;;;3.47;1.03;;;;;;;;;;4992511;28;20203;-76
2022/05/21 08:50:39;;;;;;;1.37;1.00;;;;;;;;;;4978355;28;20247;-76
2022/05/21 08:53:07;;;;;;;2.63;1.03;;;;;;;;;;4994320;28;20212;-76
2022/05/21 08:55:38;;;;;;;2.87;1.07;;;;;;;;;;4994511;28;20168;-76
2022/05/21 08:58:08;;;;;;;2.23;0.93;;;;;;;;;;4995562;28;20230;-76
2022/05/21 09:00:41;;;;;;;2.40;0.90;;;;;;;;;;4994263;28;20180;-76
2022/05/21 09:03:09;;;;;;;2.17;0.93;;;;;;;;;;4994158;28;20183;-76
2022/05/21 09:05:36;;;;;;;1.77;1.07;;;;;;;;;;4995243;28;20598;-76
2022/05/21 09:08:08;;;;;;;2.13;0.93;;;;;;;;;;4995365;28;20211;-76
2022/05/21 09:11:01;;;;;;;1.77;1.00;;;;;;;;;;4994135;28;20180;-76
2022/05/21 09:13:41;;;;;;;3.10;1.17;;;;;;;;;;4989705;28;20314;-76
2022/05/21 09:18:55;;;;;;;1.47;1.00;;;;;;;;;;4995145;28;20254;-76
2022/05/21 09:21:22;;;;;;;3.03;1.07;;;;;;;;;;4995055;28;20251;-76
2022/05/21 09:23:53;;;;;;;6.00;1.17;;;;;;;;;;4993586;28;20245;-76
2022/05/21 09:26:21;;;;;;;2.27;1.00;;;;;;;;;;4995068;28;20618;-76
2022/05/21 09:28:48;;;;;;;4.23;1.30;;;;;;;;;;4977792;28;20586;-76
2022/05/21 09:31:14;;;;;;;4.03;1.20;;;;;;;;;;4993769;28;20180;-76
2022/05/21 09:33:48;;;;;;;2.23;1.23;;;;;;;;;;4993485;28;20214;-76
2022/05/21 09:36:17;;;;;;;2.83;1.30;;;;;;;;;;4994933;28;20180;-76
2022/05/21 09:38:50;;;;;;;2.10;1.20;;;;;;;;;;4993636;28;20291;-76
2022/05/21 09:41:21;;;;;;;1.63;1.10;;;;;;;;;;4993468;28;20199;-76
2022/05/21 09:46:34;;;;;;;2.23;1.10;;;;;;;;;;4994834;28;20226;-76
2022/05/21 09:49:18;;;;;;;1.87;1.17;;;;;;;;;;4993641;28;20200;-76
2022/05/21 09:51:52;;;;;;;3.43;1.17;;;;;;;;;;4993008;28;20638;-76
2022/05/21 09:54:23;;;;;;;3.43;1.10;;;;;;;;;;4994598;28;20576;-76
2022/05/21 09:56:54;;;;;;;2.17;1.20;;;;;;;;;;4993193;28;20189;-76
2022/05/21 09:59:22;;;;;;;2.50;1.30;;;;;;;;;;4994437;28;20230;-76
2022/05/21 10:01:49;;;;;;;2.73;1.20;;;;;;;;;;4993040;28;20175;-76
2022/05/21 10:04:19;;;;;;;2.50;1.30;;;;;;;;;;4992889;28;20176;-76
2022/05/21 10:06:48;;;;;;;3.13;1.30;;;;;;;;;;4994265;28;20219;-76
2022/05/21 10:12:04;;;;;;;2.40;1.20;;;;;;;;;;4994206;28;20282;-76
2022/05/21 10:14:36;;;;;;;2.63;1.10;;;;;;;;;;4993150;28;20275;-76
2022/05/21 10:17:06;;;;;;;3.37;1.33;;;;;;;;;;4994006;28;20222;-76
2022/05/21 10:19:36;;;;;;;3.20;1.13;;;;;;;;;;4992751;28;20211;-76
2022/05/21 10:22:08;;;;;;;2.00;1.10;;;;;;;;;;4992455;28;20199;-76
2022/05/21 10:24:34;;;;;;;1.47;1.00;;;;;;;;;;4992809;28;20542;-76
2022/05/21 10:27:08;;;;;;;3.87;1.00;;;;;;;;;;4992500;28;20176;-76
2022/05/21 10:29:54;;;;;;;1.13;1.03;;;;;;;;;;4993825;28;20215;-76
2022/05/21 10:32:39;;;;;;;2.07;1.10;;;;;;;;;;4992176;28;20187;-76
2022/05/21 10:35:24;;;;;;;4.37;1.10;;;;;;;;;;4992720;28;20180;-76
2022/05/21 10:38:01;;;;;;;2.77;1.30;;;;;;;;;;4992369;28;20286;-76
2022/05/21 10:40:27;;;;;;;2.93;1.03;;;;;;;;;;4992494;28;20182;-77
2022/05/21 10:43:12;;;;;;;2.20;1.10;;;;;;;;;;4991968;28;20199;-76
2022/05/21 10:45:39;;;;;;;2.60;1.40;;;;;;;;;;4993690;28;20215;-76
2022/05/21 10:48:14;;;;;;;2.83;1.20;;;;;;;;;;4992355;28;20234;-76
2022/05/21 10:50:50;;;;;;;1.17;1.00;;;;;;;;;;4992829;28;20183;-76
2022/05/21 10:53:28;;;;;;;3.80;1.30;;;;;;;;;;4991793;28;20650;-77
2022/05/21 10:56:14;;;;;;;1.77;0.93;;;;;;;;;;4992103;28;20183;-76
2022/05/21 10:58:40;;;;;;;1.47;1.00;;;;;;;;;;4991543;28;20250;-76
2022/05/21 11:01:13;;;;;;;3.13;1.17;;;;;;;;;;4992083;28;20216;-76
2022/05/21 11:03:44;;;;;;;1.10;0.90;;;;;;;;;;4991370;28;20656;-76
2022/05/21 11:06:28;;;;;;;1.60;1.10;;;;;;;;;;4991975;28;20554;-76
2022/05/21 11:09:03;;;;;;;1.60;1.10;;;;;;;;;;4975870;28;20290;-77
2022/05/21 11:11:48;;;;;;;3.27;1.30;;;;;;;;;;4991987;28;20184;-77
2022/05/21 11:14:33;;;;;;;3.00;1.30;;;;;;;;;;5000104;22;20223;-76
2022/05/21 11:17:21;;;;;;;2.10;1.20;;;;;;;;;;4992099;28;20195;-76
2022/05/21 11:19:50;;;;;;;5.17;1.83;;;;;;;;;;4991974;28;20250;-76
2022/05/21 11:22:19;;;;;;;2.80;1.07;;;;;;;;;;4991403;28;20327;-76
2022/05/21 11:25:05;;;;;;;1.30;1.10;;;;;;;;;;4975841;28;20183;-76
2022/05/21 11:27:36;;;;;;;1.57;1.10;;;;;;;;;;4984663;28;20183;-76
2022/05/21 11:30:04;;;;;;;2.67;1.07;;;;;;;;;;4991957;28;20612;-76
2022/05/21 11:38:30;;;;;;;1.77;1.10;;;;;;;;;;4993137;28;20210;-76
2022/05/21 11:46:51;;;;;;;3.57;1.30;;;;;;;;;;4992883;28;20218;-76
2022/05/21 11:49:36;;;;;;;3.90;1.33;;;;;;;;;;4991334;28;20175;-76
2022/05/21 11:52:21;;;;;;;1.53;1.20;;;;;;;;;;4991480;28;20179;-76
2022/05/21 11:54:47;;;;;;;1.87;1.27;;;;;;;;;;4991259;28;20183;-76
2022/05/21 11:57:30;;;;;;;2.40;1.30;;;;;;;;;;4992660;28;20176;-76
2022/05/21 11:59:56;;;;;;;1.93;1.07;;;;;;;;;;4991423;28;20183;-76
2022/05/21 12:02:22;;;;;;;1.90;1.40;;;;;;;;;;4991018;28;20207;-76
2022/05/21 12:04:49;;;;;;;2.60;1.20;;;;;;;;;;4992249;28;20176;-76
2022/05/21 12:07:17;;;;;;;2.57;1.23;;;;;;;;;;4992932;28;20245;-76
2022/05/21 12:10:04;;;;;;;1.27;1.13;;;;;;;;;;4992532;28;20168;-76
2022/05/21 12:12:30;;;;;;;2.03;1.10;;;;;;;;;;4978677;28;20606;-76
2022/05/21 12:14:57;;;;;;;2.23;1.20;;;;;;;;;;4979416;28;20183;-76
2022/05/21 12:17:43;;;;;;;2.50;1.13;;;;;;;;;;4995024;28;20188;-76
2022/05/21 12:20:11;;;;;;;1.90;1.17;;;;;;;;;;4996340;28;20167;-76
2022/05/21 12:22:37;;;;;;;2.63;1.30;;;;;;;;;;4994734;28;20242;-76
2022/05/21 12:25:03;;;;;;;3.93;1.33;;;;;;;;;;4994963;28;20218;-76
2022/05/21 12:27:29;;;;;;;3.43;1.33;;;;;;;;;;4979078;28;20196;-76
2022/05/21 12:30:00;;;;;;;3.07;1.50;;;;;;;;;;4978874;28;20214;-76
2022/05/21 12:32:27;;;;;;;3.67;1.40;;;;;;;;;;4996197;28;20259;-76
2022/05/21 12:34:53;;;;;;;2.53;1.23;;;;;;;;;;4994728;28;20665;-76
2022/05/21 12:37:32;;;;;;;1.80;1.20;;;;;;;;;;4994692;28;20179;-76
2022/05/21 12:40:06;;;;;;;2.53;1.23;;;;;;;;;;4994660;28;20187;-76
2022/05/21 12:42:39;;;;;;;2.67;1.17;;;;;;;;;;4994412;28;20239;-76
2022/05/21 12:45:05;;;;;;;1.95;0.98;;;;;;;;;;4994570;28;20642;-76
2022/05/21 12:47:36;;;;;;;1.30;0.90;;;;;;;;;;4994480;28;20270;-76
2022/05/21 12:50:04;;;;;;;2.03;1.43;;;;;;;;;;4995671;28;20685;-76
2022/05/21 12:52:41;;;;;;;2.90;1.00;;;;;;;;;;4978372;28;20211;-76
2022/05/21 12:55:25;;;;;;;2.70;1.43;;;;;;;;;;4994495;28;20183;-76
2022/05/21 12:57:51;;;;;;;3.37;1.60;;;;;;;;;;4994627;28;20526;-76
2022/05/21 13:00:19;;;;;;;2.17;1.40;;;;;;;;;;4994290;28;20179;-76
2022/05/21 13:02:50;;;;;;;1.70;1.20;;;;;;;;;;4994140;28;20585;-76
2022/05/21 13:05:28;;;;;;;3.73;1.50;;;;;;;;;;4995303;28;20171;-76
2022/05/21 13:08:01;;;;;;;2.70;1.47;;;;;;;;;;4994090;28;20201;-76
2022/05/21 13:10:28;;;;;;;2.37;1.20;;;;;;;;;;4978782;28;20564;-76
2022/05/21 13:12:56;;;;;;;2.90;1.23;;;;;;;;;;4994970;28;20258;-76
2022/05/21 13:15:25;;;;;;;1.47;0.97;;;;;;;;;;4994237;28;20230;-76
2022/05/21 13:17:57;;;;;;;1.90;1.23;;;;;;;;;;4994135;28;20258;-76
2022/05/21 13:20:41;;;;;;;3.80;1.30;;;;;;;;;;4994067;28;20187;-76
2022/05/21 13:23:07;;;;;;;2.20;1.17;;;;;;;;;;4977228;28;20226;-76
2022/05/21 13:25:33;;;;;;;2.87;1.20;;;;;;;;;;4994148;28;20176;-76
2022/05/21 13:27:59;;;;;;;2.28;1.13;;;;;;;;;;4977809;28;20275;-76
2022/05/21 13:30:35;;;;;;;3.72;1.50;;;;;;;;;;4993743;28;20186;-76
2022/05/21 13:33:02;;;;;;;2.00;1.20;;;;;;;;;;4993550;28;20199;-76
2022/05/21 13:35:28;;;;;;;3.25;1.70;;;;;;;;;;4993757;28;20259;-76
2022/05/21 13:37:55;;;;;;;3.87;1.77;;;;;;;;;;4993505;28;20196;-76
2022/05/21 13:40:22;;;;;;;2.42;1.30;;;;;;;;;;4993846;28;20271;-76
2022/05/21 13:42:50;;;;;;;2.92;1.58;;;;;;;;;;4977065;28;20273;-76
2022/05/21 13:45:37;;;;;;;2.15;1.23;;;;;;;;;;4993535;28;20207;-76
2022/05/21 13:48:08;;;;;;;1.50;1.10;;;;;;;;;;4993333;28;20205;-76
2022/05/21 13:50:34;;;;;;;4.63;1.27;;;;;;;;;;4993315;28;20181;-76
2022/05/21 13:53:02;;;;;;;1.57;1.00;;;;;;;;;;4994267;28;20275;-76
2022/05/21 13:55:28;;;;;;;2.23;1.27;;;;;;;;;;4993280;28;20546;-76
2022/05/21 13:58:13;;;;;;;2.37;1.20;;;;;;;;;;4993333;28;20184;-76
2022/05/21 14:00:39;;;;;;;2.30;1.10;;;;;;;;;;4993106;28;20179;-76
2022/05/21 14:03:40;;;;;;;2.20;1.10;;;;;;;;;;4993150;28;20208;-76
2022/05/21 14:06:13;;;;;;;1.80;1.10;;;;;;;;;;4956275;28;20214;-76
2022/05/21 14:08:39;;;;;;;1.93;1.20;;;;;;;;;;4990752;28;20183;-76
2022/05/21 14:11:11;;;;;;;3.83;1.03;;;;;;;;;;4992917;28;20187;-76
2022/05/21 14:13:54;;;;;;;1.80;1.40;;;;;;;;;;4992714;28;20207;-76
2022/05/21 14:16:31;;;;;;;2.38;1.38;;;;;;;;;;4993167;28;20290;-76
2022/05/21 14:19:05;;;;;;;2.92;1.15;;;;;;;;;;4976749;28;20183;-76
2022/05/21 14:21:32;;;;;;;2.67;1.30;;;;;;;;;;4994096;28;20599;-76
2022/05/21 14:24:18;;;;;;;1.58;1.17;;;;;;;;;;4992765;28;20218;-76
2022/05/21 14:26:58;;;;;;;4.60;1.33;;;;;;;;;;4993864;28;20558;-76
2022/05/21 14:29:34;;;;;;;2.70;1.30;;;;;;;;;;4992601;28;20194;-76
2022/05/21 14:32:12;;;;;;;1.30;1.10;;;;;;;;;;4992334;28;20175;-76
2022/05/21 14:34:38;;;;;;;3.57;1.40;;;;;;;;;;4991881;28;20179;-76
2022/05/21 14:37:04;;;;;;;1.77;1.27;;;;;;;;;;4992507;28;20175;-76
2022/05/21 14:39:30;;;;;;;1.73;1.00;;;;;;;;;;4976336;28;20179;-76
2022/05/21 14:42:00;;;;;;;3.97;1.20;;;;;;;;;;4992145;28;20180;-76
2022/05/21 14:44:27;;;;;;;2.43;1.20;;;;;;;;;;4992310;28;20204;-76
2022/05/21 14:49:38;;;;;;;5.60;1.63;;;;;;;;;;4993820;28;20234;-76
2022/05/21 14:54:57;;;;;;;2.37;1.10;;;;;;;;;;4993407;28;20230;-76
2022/05/21 14:57:23;;;;;;;2.00;1.17;;;;;;;;;;4992126;28;20176;-76
2022/05/21 14:59:50;;;;;;;1.77;1.20;;;;;;;;;;4992283;28;20179;-76
2022/05/21 15:02:17;;;;;;;2.03;1.20;;;;;;;;;;4975613;28;20210;-76
2022/05/21 15:04:43;;;;;;;1.50;1.10;;;;;;;;;;4976315;28;20183;-76
2022/05/21 15:07:13;;;;;;;4.47;1.38;;;;;;;;;;4992083;28;20176;-76
2022/05/21 15:09:40;;;;;;;1.45;1.05;;;;;;;;;;4991965;28;20175;-76
2022/05/21 15:12:06;;;;;;;2.35;1.25;;;;;;;;;;4975684;28;20226;-76
2022/05/21 15:14:37;;;;;;;1.38;1.10;;;;;;;;;;4975806;28;20206;-76
2022/05/21 15:17:04;;;;;;;2.65;1.40;;;;;;;;;;4992086;28;20180;-76
2022/05/21 15:19:30;;;;;;;1.52;1.20;;;;;;;;;;4991803;28;20179;-76
2022/05/21 15:21:58;;;;;;;2.45;1.33;;;;;;;;;;4975317;28;20179;-76
2022/05/21 15:24:24;;;;;;;4.18;1.50;;;;;;;;;;4993228;28;20188;-76
2022/05/21 15:26:50;;;;;;;2.05;1.17;;;;;;;;;;4991635;28;20639;-76
2022/05/21 15:29:16;;;;;;;2.03;1.20;;;;;;;;;;4991874;28;20172;-76
2022/05/21 15:31:42;;;;;;;2.20;1.40;;;;;;;;;;4975477;28;20697;-76
2022/05/21 15:34:08;;;;;;;2.08;1.50;;;;;;;;;;4991497;28;20239;-76
2022/05/21 15:36:34;;;;;;;1.63;1.20;;;;;;;;;;4975351;28;20198;-76
2022/05/21 15:39:00;;;;;;;1.87;1.40;;;;;;;;;;4975506;28;20186;-76
2022/05/21 15:41:27;;;;;;;1.70;1.30;;;;;;;;;;4991787;28;20255;-76
2022/05/21 15:43:57;;;;;;;3.33;1.40;;;;;;;;;;4991736;28;20585;-76
2022/05/21 15:46:24;;;;;;;2.40;1.50;;;;;;;;;;4997998;28;20176;-76
2022/05/21 15:48:51;;;;;;;2.53;1.60;;;;;;;;;;4981810;28;20179;-76
2022/05/21 15:51:19;;;;;;;2.40;1.30;;;;;;;;;;4998049;28;20180;-76
2022/05/21 15:53:45;;;;;;;1.87;1.10;;;;;;;;;;4997987;28;20204;-76
2022/05/21 15:56:12;;;;;;;1.90;1.50;;;;;;;;;;4981833;28;20180;-76
2022/05/21 15:58:38;;;;;;;2.10;1.40;;;;;;;;;;4981924;28;20179;-76
2022/05/21 16:01:04;;;;;;;3.50;1.80;;;;;;;;;;4981860;28;20361;-76
2022/05/21 16:03:30;;;;;;;3.00;1.80;;;;;;;;;;4997370;28;20211;-76
2022/05/21 16:05:57;;;;;;;2.27;1.27;;;;;;;;;;4981945;28;20295;-76
2022/05/21 16:08:23;;;;;;;2.27;1.40;;;;;;;;;;4997823;28;20210;-76
2022/05/21 16:10:50;;;;;;;2.73;1.50;;;;;;;;;;4997815;28;20218;-76
2022/05/21 16:13:16;;;;;;;1.87;1.40;;;;;;;;;;4997569;28;20215;-76
2022/05/21 16:15:42;;;;;;;3.90;1.57;;;;;;;;;;4997833;28;20213;-76
2022/05/21 16:18:10;;;;;;;2.33;1.30;;;;;;;;;;4981446;28;20180;-76
2022/05/21 16:20:40;;;;;;;3.00;1.37;;;;;;;;;;4981563;28;20176;-76
2022/05/21 16:23:06;;;;;;;4.60;1.80;;;;;;;;;;4997558;28;20211;-76
2022/05/21 16:25:32;;;;;;;2.93;1.50;;;;;;;;;;4997730;28;20270;-76
2022/05/21 16:27:59;;;;;;;2.20;1.33;;;;;;;;;;4997621;28;20665;-76
2022/05/21 16:30:25;;;;;;;2.40;1.40;;;;;;;;;;4981348;28;20183;-76
2022/05/21 16:32:51;;;;;;;3.27;1.47;;;;;;;;;;4981204;28;20208;-76
2022/05/21 16:35:17;;;;;;;2.70;1.80;;;;;;;;;;4997796;28;20271;-76
2022/05/21 16:37:43;;;;;;;1.90;1.40;;;;;;;;;;4998900;28;20203;-76
2022/05/21 16:40:10;;;;;;;2.27;1.30;;;;;;;;;;4981609;28;20184;-76
2022/05/21 16:42:36;;;;;;;2.10;1.30;;;;;;;;;;4997306;28;20250;-76
2022/05/21 16:45:03;;;;;;;3.23;1.73;;;;;;;;;;4997538;28;20210;-76
2022/05/21 16:47:30;;;;;;;1.90;1.50;;;;;;;;;;4997408;28;20243;-76
2022/05/21 16:49:56;;;;;;;3.53;1.40;;;;;;;;;;4997737;28;20180;-76
2022/05/21 16:52:25;;;;;;;4.70;1.70;;;;;;;;;;4981055;28;20187;-76
2022/05/21 16:54:51;;;;;;;3.77;1.40;;;;;;;;;;4981596;28;20183;-76
2022/05/21 16:57:17;;;;;;;2.50;1.33;;;;;;;;;;4994004;28;20183;-76
2022/05/21 16:59:43;;;;;;;2.07;1.33;;;;;;;;;;4995568;28;20194;-76
2022/05/21 17:02:11;;;;;;;2.60;1.60;;;;;;;;;;4993896;28;20180;-76
2022/05/21 17:04:37;;;;;;;3.63;1.40;;;;;;;;;;4994261;28;20172;-76
2022/05/21 17:07:04;;;;;;;2.23;1.60;;;;;;;;;;4994188;28;20175;-76
2022/05/21 17:09:31;;;;;;;3.10;1.63;;;;;;;;;;4994396;28;20171;-76
2022/05/21 17:11:57;;;;;;;3.40;1.60;;;;;;;;;;4995166;28;20678;-76
2022/05/21 17:14:23;;;;;;;3.37;1.60;;;;;;;;;;4994550;28;20346;-76
2022/05/21 17:16:50;;;;;;;4.83;1.70;;;;;;;;;;4995810;28;20176;-76
2022/05/21 17:19:17;;;;;;;2.87;1.70;;;;;;;;;;4995447;28;20642;-76
2022/05/21 17:21:50;;;;;;;2.73;1.60;;;;;;;;;;4993999;28;20176;-76
2022/05/21 19:33:22;;;;;;;2.47;1.60;;;;;;;;;;5656582;22;20227;-74
2022/05/21 19:35:48;;;;;;;3.70;1.60;;;;;;;;;;4991732;28;20184;-74
2022/05/21 19:38:14;;;;;;;2.60;1.80;;;;;;;;;;4975550;28;20202;-74
2022/05/21 19:43:25;;;;;;;3.70;1.70;;;;;;;;;;4992508;28;20222;-74
2022/05/21 19:45:51;;;;;;;2.50;1.67;;;;;;;;;;4975392;28;20294;-74
2022/05/21 19:48:17;;;;;;;3.10;1.70;;;;;;;;;;4975951;28;20270;-75
2022/05/21 19:50:43;;;;;;;2.40;1.90;;;;;;;;;;4975390;28;20214;-75
2022/05/21 19:53:09;;;;;;;2.93;1.70;;;;;;;;;;4991451;28;20743;-74
2022/05/21 19:55:35;;;;;;;5.80;2.00;;;;;;;;;;4991354;28;20211;-74
2022/05/21 19:58:00;;;;;;;3.57;2.03;;;;;;;;;;4975307;28;20183;-74
2022/05/21 20:00:27;;;;;;;2.53;1.90;;;;;;;;;;4975319;28;20192;-74
2022/05/21 20:02:52;;;;;;;2.00;1.80;;;;;;;;;;4991190;28;20269;-74
2022/05/21 20:05:18;;;;;;;3.07;1.67;;;;;;;;;;4975092;28;20179;-74
2022/05/21 20:07:45;;;;;;;3.43;1.80;;;;;;;;;;4991663;28;20181;-74
2022/05/21 20:10:12;;;;;;;3.83;1.90;;;;;;;;;;4991421;28;20551;-74
2022/05/21 20:12:38;;;;;;;2.50;1.80;;;;;;;;;;4991245;28;20286;-74
2022/05/21 20:15:04;;;;;;;2.87;1.77;;;;;;;;;;4991365;28;20314;-74
2022/05/21 20:17:30;;;;;;;3.20;1.97;;;;;;;;;;4991267;28;20183;-74
2022/05/21 20:19:57;;;;;;;2.53;1.90;;;;;;;;;;4991193;28;20233;-74
2022/05/21 20:22:23;;;;;;;2.33;1.70;;;;;;;;;;4975103;28;20203;-74
2022/05/21 20:24:49;;;;;;;2.50;1.90;;;;;;;;;;4974947;28;20183;-75
2022/05/21 20:27:15;;;;;;;4.47;1.90;;;;;;;;;;4975196;28;20196;-74
2022/05/21 20:29:42;;;;;;;2.63;1.83;;;;;;;;;;4991016;28;20231;-74
2022/05/21 20:32:09;;;;;;;2.63;2.00;;;;;;;;;;4992994;28;20176;-74
2022/05/21 20:34:36;;;;;;;2.50;1.70;;;;;;;;;;4994678;28;20211;-74
2022/05/21 20:37:02;;;;;;;1.90;1.60;;;;;;;;;;4994793;28;20176;-74
2022/05/21 20:39:28;;;;;;;2.97;1.83;;;;;;;;;;4978724;28;20190;-74
2022/05/21 20:41:54;;;;;;;3.03;2.00;;;;;;;;;;4994494;28;20258;-74
2022/05/21 20:44:21;;;;;;;4.27;1.90;;;;;;;;;;4978500;28;20602;-74
2022/05/21 20:46:47;;;;;;;2.33;2.00;;;;;;;;;;4995879;28;20226;-74
2022/05/21 20:51:58;;;;;;;3.97;1.97;;;;;;;;;;4994798;28;20190;-74
2022/05/21 20:54:24;;;;;;;2.83;1.93;;;;;;;;;;4978451;28;20206;-74
2022/05/21 20:56:50;;;;;;;2.40;1.90;;;;;;;;;;4994520;28;20180;-74
2022/05/21 20:59:16;;;;;;;3.07;2.20;;;;;;;;;;4978159;28;20191;-74
2022/05/21 21:01:42;;;;;;;2.40;1.77;;;;;;;;;;4978370;28;20188;-74
2022/05/21 21:04:08;;;;;;;2.87;1.90;;;;;;;;;;4977698;28;20216;-74
2022/05/21 21:06:35;;;;;;;3.13;2.07;;;;;;;;;;4994499;28;20176;-74
2022/05/21 21:09:01;;;;;;;4.23;1.90;;;;;;;;;;4978039;28;20662;-74
2022/05/21 21:11:27;;;;;;;4.53;2.07;;;;;;;;;;4994115;28;20194;-74
2022/05/21 21:13:53;;;;;;;3.43;1.97;;;;;;;;;;4993834;28;20241;-74
2022/05/21 21:16:19;;;;;;;2.63;2.03;;;;;;;;;;4977838;28;20288;-74
2022/05/21 21:18:47;;;;;;;2.63;1.70;;;;;;;;;;4994244;28;20176;-74
2022/05/21 21:21:14;;;;;;;3.87;1.90;;;;;;;;;;4978234;28;20179;-74
2022/05/21 21:23:41;;;;;;;2.60;1.90;;;;;;;;;;4977687;28;20311;-74
2022/05/21 21:26:07;;;;;;;2.00;1.80;;;;;;;;;;4995165;28;20211;-74
2022/05/21 21:28:33;;;;;;;2.73;1.90;;;;;;;;;;4977668;28;20176;-74
2022/05/21 21:30:59;;;;;;;3.63;2.30;;;;;;;;;;4993919;28;20179;-74
2022/05/21 21:33:25;;;;;;;3.37;2.00;;;;;;;;;;4993573;28;20269;-75
2022/05/21 21:35:51;;;;;;;3.07;2.00;;;;;;;;;;4993847;28;20176;-74
2022/05/21 21:38:17;;;;;;;8.70;2.20;;;;;;;;;;4993858;28;20556;-75
2022/05/21 21:40:43;;;;;;;2.70;1.90;;;;;;;;;;4993606;28;20218;-74
2022/05/21 21:43:10;;;;;;;3.20;2.20;;;;;;;;;;4976804;28;20219;-74
2022/05/21 21:45:36;;;;;;;2.53;2.00;;;;;;;;;;4994732;28;20171;-74
2022/05/21 21:48:02;;;;;;;2.13;1.90;;;;;;;;;;4993684;28;20262;-74
2022/05/21 21:50:28;;;;;;;3.20;2.10;;;;;;;;;;4993445;28;20548;-74
2022/05/21 21:52:54;;;;;;;3.00;2.20;;;;;;;;;;4993252;28;20254;-74
2022/05/21 21:55:20;;;;;;;2.50;2.27;;;;;;;;;;4977396;28;20186;-74
2022/05/21 21:57:46;;;;;;;4.10;2.27;;;;;;;;;;4977100;28;20662;-74
2022/05/21 22:03:16;;;;;;;2.83;2.00;;;;;;;;;;4994367;28;20318;-74
2022/05/21 22:05:42;;;;;;;2.37;1.90;;;;;;;;;;4992878;28;20273;-74
2022/05/21 22:08:08;;;;;;;2.20;2.00;;;;;;;;;;4976941;28;20198;-74
2022/05/21 22:10:34;;;;;;;3.57;1.80;;;;;;;;;;4993408;28;20187;-74
2022/05/21 22:13:00;;;;;;;4.03;2.20;;;;;;;;;;4992898;28;20199;-74
2022/05/21 22:15:26;;;;;;;2.37;1.93;;;;;;;;;;4977110;28;20215;-74
2022/05/21 22:17:52;;;;;;;2.60;2.17;;;;;;;;;;4976851;28;20176;-74
2022/05/21 22:20:18;;;;;;;2.77;2.00;;;;;;;;;;4976811;28;20211;-74
2022/05/21 22:22:44;;;;;;;2.30;2.07;;;;;;;;;;4976420;28;20586;-75
2022/05/21 22:25:10;;;;;;;4.60;2.10;;;;;;;;;;4992776;28;20238;-74
2022/05/21 22:27:36;;;;;;;2.77;2.17;;;;;;;;;;4992683;28;20275;-74
2022/05/21 22:30:02;;;;;;;4.70;2.20;;;;;;;;;;4976629;28;20176;-74
2022/05/21 22:32:28;;;;;;;6.17;2.10;;;;;;;;;;4992250;28;20262;-74
2022/05/21 22:34:54;;;;;;;4.23;2.27;;;;;;;;;;4976494;28;20298;-74
2022/05/21 22:37:20;;;;;;;2.37;2.10;;;;;;;;;;4976319;28;20238;-74
2022/05/21 22:39:46;;;;;;;4.97;2.10;;;;;;;;;;4992575;28;20203;-74
2022/05/21 22:42:12;;;;;;;2.30;2.10;;;;;;;;;;4992413;28;20307;-74
2022/05/21 22:44:38;;;;;;;2.37;2.00;;;;;;;;;;4992366;28;20682;-74
2022/05/21 22:47:04;;;;;;;2.67;2.10;;;;;;;;;;4992407;28;20190;-74